Time;durP1;ratioP1;P1;durP2;ratioP2;P2;SDS_P1;SDS_P2;PMS_P1;PMS_P2;Temp;Humidity;BMP_temperature;BMP_pressure;BME280_temperature;BME280_humidity;BME280_pressure;Samples;Min_cycle;Max_cycle;Signal;HPM_P1;HPM_P2
2022/07/09 00:01:17;;;;;;;22.38;11.82;;;;;;;;;;5137587;27;20073;-83
2022/07/09 00:03:43;;;;;;;22.88;12.23;;;;;;;;;;5133181;27;20043;-83
2022/07/09 00:06:09;;;;;;;20.08;11.45;;;;;;;;;;5149335;27;20435;-84
2022/07/09 00:08:35;;;;;;;23.42;12.07;;;;;;;;;;5147911;27;20077;-89
2022/07/09 00:11:01;;;;;;;23.48;11.45;;;;;;;;;;5137807;27;20036;-84
2022/07/09 00:13:27;;;;;;;22.30;10.88;;;;;;;;;;5112297;27;20081;-83
2022/07/09 00:15:53;;;;;;;26.13;10.98;;;;;;;;;;5149643;27;20121;-84
2022/07/09 00:18:20;;;;;;;24.80;10.95;;;;;;;;;;5150738;27;20196;-83
2022/07/09 00:20:46;;;;;;;;;;;;;;;;;;5138824;27;20156;-84
2022/07/09 00:23:12;;;;;;;26.27;10.68;;;;;;;;;;5131253;27;19929;-83
2022/07/09 00:25:38;;;;;;;24.98;10.98;;;;;;;;;;5111828;27;20467;-84
2022/07/09 00:28:04;;;;;;;27.27;10.55;;;;;;;;;;5130787;27;20059;-83
2022/07/09 00:30:30;;;;;;;22.48;10.85;;;;;;;;;;5128061;27;20046;-86
2022/07/09 00:32:56;;;;;;;24.15;11.05;;;;;;;;;;5132771;27;20122;-84
2022/07/09 00:35:23;;;;;;;27.67;11.50;;;;;;;;;;5146466;27;20056;-84
2022/07/09 00:37:49;;;;;;;28.88;14.18;;;;;;;;;;5132734;27;20043;-84
2022/07/09 00:40:15;;;;;;;;;;;;;;;;;;5130891;27;20057;-86
2022/07/09 00:42:41;;;;;;;26.23;13.00;;;;;;;;;;5127877;27;20315;-85
2022/07/09 00:45:07;;;;;;;27.45;13.10;;;;;;;;;;5150357;27;20042;-84
2022/07/09 00:47:33;;;;;;;29.65;13.23;;;;;;;;;;5115239;27;20066;-85
2022/07/09 00:49:59;;;;;;;29.83;13.95;;;;;;;;;;5141435;27;20046;-83
2022/07/09 00:52:26;;;;;;;33.25;13.20;;;;;;;;;;5135704;27;20106;-85
2022/07/09 00:54:52;;;;;;;;;;;;;;;;;;5115769;27;20103;-84
2022/07/09 00:57:19;;;;;;;26.80;13.60;;;;;;;;;;5151380;27;20377;-84
2022/07/09 00:59:46;;;;;;;23.27;13.55;;;;;;;;;;5143935;27;20126;-85
2022/07/09 01:02:12;;;;;;;32.03;13.85;;;;;;;;;;5110306;27;20059;-84
2022/07/09 01:04:39;;;;;;;28.23;13.10;;;;;;;;;;5130777;27;20462;-86
2022/07/09 01:07:05;;;;;;;31.25;13.10;;;;;;;;;;5132106;27;20046;-85
2022/07/09 01:09:32;;;;;;;24.98;11.60;;;;;;;;;;5133881;27;20039;-84
2022/07/09 01:11:58;;;;;;;24.48;11.43;;;;;;;;;;5146358;27;20134;-83
2022/07/09 01:14:24;;;;;;;25.33;12.02;;;;;;;;;;5113455;27;20066;-83
2022/07/09 01:16:58;;;;;;;27.80;11.23;;;;;;;;;;5149311;27;20123;-85
2022/07/09 01:19:24;;;;;;;28.35;12.43;;;;;;;;;;5147342;27;20125;-83
2022/07/09 01:21:50;;;;;;;;;;;;;;;;;;5149751;27;20046;-86
2022/07/09 01:24:16;;;;;;;26.05;10.32;;;;;;;;;;5119132;27;19919;-84
2022/07/09 01:26:43;;;;;;;25.00;10.98;;;;;;;;;;5128196;27;20058;-84
2022/07/09 01:29:10;;;;;;;;;;;;;;;;;;5130068;27;20173;-83
2022/07/09 01:31:36;;;;;;;;;;;;;;;;;;5129675;27;19950;-86
2022/07/09 01:34:02;;;;;;;22.20;9.93;;;;;;;;;;5094843;27;19927;-74
2022/07/09 01:36:28;;;;;;;28.33;11.43;;;;;;;;;;5130607;27;20114;-83
2022/07/09 01:38:54;;;;;;;26.75;11.05;;;;;;;;;;5110808;27;20154;-85
2022/07/09 01:41:20;;;;;;;25.80;11.75;;;;;;;;;;5122633;27;20130;-84
2022/07/09 01:43:46;;;;;;;22.92;11.02;;;;;;;;;;5131435;27;20111;-82
2022/07/09 01:46:12;;;;;;;27.50;11.85;;;;;;;;;;5126395;27;20348;-82
2022/07/09 01:48:42;;;;;;;29.85;12.20;;;;;;;;;;5148850;27;20039;-85
2022/07/09 01:51:08;;;;;;;24.88;11.57;;;;;;;;;;5143045;27;20053;-84
2022/07/09 01:53:34;;;;;;;26.92;11.25;;;;;;;;;;5129179;27;20058;-88
2022/07/09 01:56:04;;;;;;;23.50;10.90;;;;;;;;;;5136233;27;20068;-73
2022/07/09 01:58:31;;;;;;;26.08;11.25;;;;;;;;;;5148092;27;20046;-77
2022/07/09 02:00:57;;;;;;;27.33;11.52;;;;;;;;;;5140380;27;20081;-79
2022/07/09 02:03:23;;;;;;;30.52;11.55;;;;;;;;;;5110212;27;20054;-78
2022/07/09 02:05:49;;;;;;;25.75;12.27;;;;;;;;;;5115239;27;20118;-77
2022/07/09 02:08:15;;;;;;;28.55;11.70;;;;;;;;;;5149887;27;20121;-79
2022/07/09 02:10:41;;;;;;;27.27;11.10;;;;;;;;;;5110999;27;20134;-81
2022/07/09 02:13:07;;;;;;;29.25;12.35;;;;;;;;;;5147515;27;20078;-78
2022/07/09 02:15:34;;;;;;;27.77;12.07;;;;;;;;;;5146438;27;20053;-78
2022/07/09 02:18:00;;;;;;;26.45;11.88;;;;;;;;;;5149348;27;20142;-80
2022/07/09 02:20:26;;;;;;;;;;;;;;;;;;5129304;27;20371;-80
2022/07/09 02:22:52;;;;;;;28.35;11.75;;;;;;;;;;5127816;27;19942;-80
2022/07/09 02:25:18;;;;;;;25.40;11.57;;;;;;;;;;5136789;27;20042;-84
2022/07/09 02:27:44;;;;;;;31.35;11.07;;;;;;;;;;5128224;27;20058;-83
2022/07/09 02:30:11;;;;;;;21.75;11.02;;;;;;;;;;5128601;28;20173;-79
2022/07/09 02:32:38;;;;;;;;;;;;;;;;;;5121832;28;20076;-83
2022/07/09 02:35:04;;;;;;;21.08;10.23;;;;;;;;;;5128576;27;20343;-81
2022/07/09 02:37:30;;;;;;;26.88;10.02;;;;;;;;;;5144068;27;20138;-81
2022/07/09 02:39:56;;;;;;;;;;;;;;;;;;5116141;27;20046;-80
2022/07/09 02:42:22;;;;;;;19.30;9.38;;;;;;;;;;5120212;27;19942;-84
2022/07/09 02:44:48;;;;;;;26.05;11.07;;;;;;;;;;5114085;27;20065;-78
2022/07/09 02:47:14;;;;;;;25.45;10.52;;;;;;;;;;5131824;27;20134;-78
2022/07/09 02:49:41;;;;;;;22.08;9.18;;;;;;;;;;5116041;27;20114;-84
2022/07/09 02:52:07;;;;;;;;;;;;;;;;;;5132812;27;20039;-78
2022/07/09 02:54:33;;;;;;;17.55;9.07;;;;;;;;;;5114388;27;20242;-80
2022/07/09 02:57:00;;;;;;;24.20;8.80;;;;;;;;;;5132544;27;20069;-85
2022/07/09 02:59:26;;;;;;;20.35;8.85;;;;;;;;;;5132360;27;20059;-81
2022/07/09 03:01:52;;;;;;;20.40;9.05;;;;;;;;;;5140884;27;20042;-80
2022/07/09 03:04:18;;;;;;;20.63;8.35;;;;;;;;;;5150942;27;20461;-81
2022/07/09 03:06:44;;;;;;;23.67;9.05;;;;;;;;;;5143046;27;20173;-84
2022/07/09 03:09:10;;;;;;;26.42;8.90;;;;;;;;;;5132290;27;20123;-80
2022/07/09 03:11:36;;;;;;;21.88;8.52;;;;;;;;;;5135538;27;20431;-81
2022/07/09 03:14:03;;;;;;;22.08;9.07;;;;;;;;;;5111692;27;20470;-81
2022/07/09 03:16:29;;;;;;;23.23;9.27;;;;;;;;;;5131704;27;20035;-81
2022/07/09 03:18:55;;;;;;;26.38;9.48;;;;;;;;;;5132172;27;20098;-83
2022/07/09 03:21:21;;;;;;;22.52;8.35;;;;;;;;;;5148048;27;20366;-80
2022/07/09 03:23:47;;;;;;;20.90;7.85;;;;;;;;;;5131239;27;20120;-89
2022/07/09 03:26:13;;;;;;;18.17;8.23;;;;;;;;;;5131232;27;20417;-80
2022/07/09 03:28:39;;;;;;;23.65;9.07;;;;;;;;;;5131253;27;20093;-81
2022/07/09 03:31:05;;;;;;;20.95;9.05;;;;;;;;;;5130294;27;20039;-84
2022/07/09 03:33:31;;;;;;;;;;;;;;;;;;5148541;27;20043;-81
2022/07/09 03:35:58;;;;;;;24.25;9.40;;;;;;;;;;5115782;27;19923;-81
2022/07/09 03:38:24;;;;;;;19.45;8.38;;;;;;;;;;5129966;27;20079;-80
2022/07/09 03:40:50;;;;;;;22.70;8.40;;;;;;;;;;5130143;27;20190;-82
2022/07/09 03:43:17;;;;;;;27.95;8.35;;;;;;;;;;5135946;27;20468;-79
2022/07/09 03:45:43;;;;;;;23.63;8.15;;;;;;;;;;5151831;27;20038;-82
2022/07/09 03:48:09;;;;;;;19.63;8.10;;;;;;;;;;5133468;27;20202;-84
2022/07/09 03:50:35;;;;;;;20.42;8.15;;;;;;;;;;5132499;27;20102;-84
2022/07/09 03:53:01;;;;;;;21.75;7.90;;;;;;;;;;5131260;27;20457;-86
2022/07/09 03:55:28;;;;;;;21.00;8.05;;;;;;;;;;5113167;27;20059;-87
2022/07/09 03:57:54;;;;;;;;;;;;;;;;;;5133319;27;20046;-86
2022/07/09 04:00:20;;;;;;;18.73;8.10;;;;;;;;;;5137807;27;19938;-85
2022/07/09 04:02:46;;;;;;;19.35;7.22;;;;;;;;;;5143388;27;20125;-76
2022/07/09 04:05:12;;;;;;;18.33;8.32;;;;;;;;;;5142799;27;20478;-78
2022/07/09 04:07:39;;;;;;;20.70;7.70;;;;;;;;;;5139645;27;20051;-81
2022/07/09 04:10:06;;;;;;;20.45;7.68;;;;;;;;;;5128425;27;20471;-81
2022/07/09 04:12:32;;;;;;;20.38;7.53;;;;;;;;;;5135043;27;20150;-83
2022/07/09 04:14:58;;;;;;;20.15;8.15;;;;;;;;;;5118953;27;20047;-84
2022/07/09 04:17:24;;;;;;;19.13;7.60;;;;;;;;;;5129124;27;20074;-80
2022/07/09 04:19:50;;;;;;;17.10;8.25;;;;;;;;;;5132542;27;20103;-84
2022/07/09 04:22:16;;;;;;;20.90;8.77;;;;;;;;;;5099978;27;20522;-83
2022/07/09 04:24:42;;;;;;;19.73;8.20;;;;;;;;;;5149382;27;20053;-88
2022/07/09 04:27:08;;;;;;;18.35;8.25;;;;;;;;;;5132281;27;20169;-82
2022/07/09 04:29:34;;;;;;;23.33;7.47;;;;;;;;;;5109432;27;20050;-83
2022/07/09 04:32:00;;;;;;;20.95;7.88;;;;;;;;;;5129417;27;20050;-83
2022/07/09 04:34:26;;;;;;;17.65;7.90;;;;;;;;;;5128883;27;20231;-85
2022/07/09 04:36:52;;;;;;;22.52;8.07;;;;;;;;;;5150339;27;20042;-84
2022/07/09 04:39:18;;;;;;;19.38;7.68;;;;;;;;;;5112651;27;20047;-85
2022/07/09 04:41:44;;;;;;;18.40;8.00;;;;;;;;;;5110943;27;20047;-85
2022/07/09 04:44:15;;;;;;;20.80;7.90;;;;;;;;;;5138015;27;20087;-87
2022/07/09 04:46:41;;;;;;;18.80;7.32;;;;;;;;;;5147508;27;20042;-84
2022/07/09 04:49:07;;;;;;;;;;;;;;;;;;5129460;27;20042;-83
2022/07/09 04:51:33;;;;;;;17.70;7.50;;;;;;;;;;5149371;27;19919;-83
2022/07/09 04:53:59;;;;;;;23.35;8.25;;;;;;;;;;5142334;27;20099;-84
2022/07/09 04:56:25;;;;;;;19.73;7.35;;;;;;;;;;5125782;27;20065;-84
2022/07/09 04:58:51;;;;;;;18.90;8.05;;;;;;;;;;5125894;27;20039;-83
2022/07/09 05:01:21;;;;;;;15.32;7.82;;;;;;;;;;5116226;27;20800;-84
2022/07/09 05:03:47;;;;;;;18.88;8.02;;;;;;;;;;5109387;27;20084;-81
2022/07/09 05:06:13;;;;;;;;;;;;;;;;;;5108752;27;20074;-82
2022/07/09 05:08:39;;;;;;;22.75;8.30;;;;;;;;;;5119679;27;19935;-81
2022/07/09 05:11:05;;;;;;;18.92;7.80;;;;;;;;;;5122979;27;20054;-83
2022/07/09 05:13:31;;;;;;;;;;;;;;;;;;5126058;27;20126;-82
2022/07/09 05:15:57;;;;;;;19.30;7.88;;;;;;;;;;5124692;27;20079;-82
2022/07/09 05:18:23;;;;;;;19.42;7.75;;;;;;;;;;5119791;27;20059;-83
2022/07/09 05:20:49;;;;;;;;;;;;;;;;;;5108047;28;20495;-78
2022/07/09 05:23:15;;;;;;;21.98;7.78;;;;;;;;;;5109735;27;19947;-84
2022/07/09 05:25:42;;;;;;;19.50;8.00;;;;;;;;;;5127085;27;20042;-83
2022/07/09 05:28:08;;;;;;;16.75;7.57;;;;;;;;;;5113704;27;20044;-82
2022/07/09 05:30:37;;;;;;;21.15;6.97;;;;;;;;;;5110513;27;20102;-72
2022/07/09 05:33:06;;;;;;;15.30;7.63;;;;;;;;;;5107718;27;20079;-88
2022/07/09 05:35:32;;;;;;;17.45;7.75;;;;;;;;;;5105500;28;20446;-86
2022/07/09 05:37:59;;;;;;;18.13;7.75;;;;;;;;;;5107554;27;20097;-78
2022/07/09 05:40:24;;;;;;;;;;;;;;;;;;5108811;27;20059;-86
2022/07/09 05:42:51;;;;;;;18.35;7.30;;;;;;;;;;5107601;28;19929;-83
2022/07/09 05:45:17;;;;;;;20.67;7.43;;;;;;;;;;5108308;27;20067;-92
2022/07/09 05:47:43;;;;;;;20.80;7.20;;;;;;;;;;5106784;27;20110;-85
2022/07/09 05:50:09;;;;;;;17.55;7.38;;;;;;;;;;5106826;27;20120;-83
2022/07/09 05:52:35;;;;;;;;;;;;;;;;;;5126971;27;20074;-86
2022/07/09 05:55:03;;;;;;;20.50;7.10;;;;;;;;;;5126519;27;19962;-87
2022/07/09 05:57:29;;;;;;;20.08;7.22;;;;;;;;;;5109125;27;20057;-84
2022/07/09 05:59:55;;;;;;;17.77;6.78;;;;;;;;;;5103759;27;20036;-72
2022/07/09 06:02:22;;;;;;;22.00;6.85;;;;;;;;;;5124135;27;20426;-74
2022/07/09 06:04:48;;;;;;;17.58;6.65;;;;;;;;;;5127343;27;20145;-79
2022/07/09 06:07:15;;;;;;;16.50;7.30;;;;;;;;;;5124370;27;20055;-82
2022/07/09 06:09:41;;;;;;;;;;;;;;;;;;5119270;27;20035;-81
2022/07/09 06:12:07;;;;;;;18.05;7.28;;;;;;;;;;5125568;27;20358;-87
2022/07/09 06:14:33;;;;;;;18.02;7.60;;;;;;;;;;5106271;28;20047;-89
2022/07/09 06:17:05;;;;;;;;;;;;;;;;;;5105685;28;20450;-79
2022/07/09 06:19:31;;;;;;;19.00;6.63;;;;;;;;;;5110915;28;20248;-87
2022/07/09 06:21:58;;;;;;;19.52;6.75;;;;;;;;;;5119625;28;20059;-86
2022/07/09 06:24:24;;;;;;;17.08;6.47;;;;;;;;;;5088225;28;20134;-83
2022/07/09 06:26:50;;;;;;;16.48;6.82;;;;;;;;;;5112371;28;20047;-84
2022/07/09 06:29:16;;;;;;;15.40;5.93;;;;;;;;;;5107947;28;20071;-76
2022/07/09 06:31:42;;;;;;;18.08;6.32;;;;;;;;;;5116370;27;20166;-87
2022/07/09 06:34:10;;;;;;;14.05;5.60;;;;;;;;;;5111626;28;20112;-87
2022/07/09 06:36:36;;;;;;;16.75;6.18;;;;;;;;;;5124553;27;20049;-83
2022/07/09 06:41:47;;;;;;;15.98;5.75;;;;;;;;;;5126208;28;20073;-70
2022/07/09 06:44:13;;;;;;;16.88;5.78;;;;;;;;;;5112618;28;20047;-74
2022/07/09 06:46:39;;;;;;;13.00;5.70;;;;;;;;;;5104582;28;20066;-73
2022/07/09 06:49:05;;;;;;;17.92;5.70;;;;;;;;;;5107041;28;20047;-81
2022/07/09 06:51:31;;;;;;;14.73;5.50;;;;;;;;;;5107164;28;20052;-76
2022/07/09 06:53:57;;;;;;;12.82;5.38;;;;;;;;;;5112610;28;20070;-79
2022/07/09 06:56:23;;;;;;;17.50;5.55;;;;;;;;;;5130012;27;20058;-80
2022/07/09 06:58:50;;;;;;;13.73;4.93;;;;;;;;;;5127937;27;20115;-83
2022/07/09 07:01:16;;;;;;;13.90;4.70;;;;;;;;;;5104139;28;20047;-84
2022/07/09 07:03:42;;;;;;;13.57;4.57;;;;;;;;;;5133578;27;20043;-78
2022/07/09 07:06:08;;;;;;;13.43;4.10;;;;;;;;;;5120352;27;20054;-80
2022/07/09 07:08:34;;;;;;;14.18;3.85;;;;;;;;;;5144644;27;20328;-79
2022/07/09 07:11:00;;;;;;;14.50;4.28;;;;;;;;;;5127570;27;20340;-82
2022/07/09 07:13:26;;;;;;;13.07;4.00;;;;;;;;;;5139928;27;20039;-80
2022/07/09 07:15:52;;;;;;;15.40;4.47;;;;;;;;;;5143896;27;20039;-73
2022/07/09 07:18:18;;;;;;;20.92;4.57;;;;;;;;;;5137606;27;20043;-78
2022/07/09 07:20:45;;;;;;;18.10;3.97;;;;;;;;;;5128179;27;20061;-80
2022/07/09 07:23:11;;;;;;;12.10;4.00;;;;;;;;;;5139324;27;20105;-78
2022/07/09 07:25:37;;;;;;;;;;;;;;;;;;5146932;27;20047;-80
2022/07/09 07:28:04;;;;;;;14.90;3.50;;;;;;;;;;5150825;27;20184;-78
2022/07/09 07:30:32;;;;;;;17.15;3.70;;;;;;;;;;5146711;27;20089;-77
2022/07/09 07:32:59;;;;;;;15.80;4.00;;;;;;;;;;5130273;27;20191;-79
2022/07/09 07:35:25;;;;;;;17.45;3.90;;;;;;;;;;5135721;27;20034;-74
2022/07/09 07:37:51;;;;;;;;;;;;;;;;;;5148379;27;20090;-75
2022/07/09 07:40:17;;;;;;;16.55;3.70;;;;;;;;;;5144303;27;19935;-79
2022/07/09 07:42:43;;;;;;;;;;;;;;;;;;5141754;27;20121;-78
2022/07/09 07:45:09;;;;;;;13.65;3.33;;;;;;;;;;5146977;27;19994;-75
2022/07/09 07:47:36;;;;;;;11.95;3.53;;;;;;;;;;5133041;27;20095;-78
2022/07/09 07:50:02;;;;;;;12.38;3.38;;;;;;;;;;5142292;27;20054;-78
2022/07/09 07:52:28;;;;;;;13.55;3.40;;;;;;;;;;5151016;27;20047;-74
2022/07/09 07:54:54;;;;;;;11.05;3.47;;;;;;;;;;5115621;27;20055;-73
2022/07/09 07:57:20;;;;;;;15.77;3.80;;;;;;;;;;5110125;27;20062;-75
2022/07/09 07:59:46;;;;;;;12.82;3.42;;;;;;;;;;5129092;27;20337;-76
2022/07/09 08:02:12;;;;;;;14.02;3.90;;;;;;;;;;5111410;27;20477;-76
2022/07/09 08:04:38;;;;;;;16.00;4.07;;;;;;;;;;5131641;27;20080;-76
2022/07/09 08:07:05;;;;;;;12.35;3.20;;;;;;;;;;5134785;27;20095;-77
2022/07/09 08:09:32;;;;;;;;;;;;;;;;;;5139051;27;20054;-75
2022/07/09 08:11:59;;;;;;;12.43;3.30;;;;;;;;;;5134298;27;19919;-73
2022/07/09 08:14:25;;;;;;;15.13;3.55;;;;;;;;;;5117193;27;20519;-80
2022/07/09 08:16:51;;;;;;;10.18;3.40;;;;;;;;;;5116285;27;20066;-74
2022/07/09 08:19:17;;;;;;;13.57;3.30;;;;;;;;;;5143942;27;20078;-79
2022/07/09 08:21:43;;;;;;;14.90;4.03;;;;;;;;;;5147136;27;20050;-74
2022/07/09 08:24:09;;;;;;;13.52;3.58;;;;;;;;;;5131104;27;20065;-72
2022/07/09 08:26:35;;;;;;;12.27;3.50;;;;;;;;;;5112178;27;20453;-72
2022/07/09 08:29:01;;;;;;;13.00;3.50;;;;;;;;;;5146688;27;20142;-75
2022/07/09 08:31:27;;;;;;;;;;;;;;;;;;5130573;27;20451;-87
2022/07/09 08:33:55;;;;;;;12.32;3.88;;;;;;;;;;5129945;27;19962;-82
2022/07/09 08:36:21;;;;;;;16.08;3.55;;;;;;;;;;5111106;27;20039;-77
2022/07/09 08:38:49;;;;;;;11.90;3.47;;;;;;;;;;5134847;27;20045;-77
2022/07/09 08:41:19;;;;;;;13.45;3.58;;;;;;;;;;5110902;27;20047;-77
2022/07/09 08:43:50;;;;;;;16.13;3.42;;;;;;;;;;5128825;27;20061;-75
2022/07/09 08:46:16;;;;;;;10.75;3.28;;;;;;;;;;5131302;27;20439;-76
2022/07/09 08:48:43;;;;;;;16.25;3.58;;;;;;;;;;5111224;27;20046;-80
2022/07/09 08:51:09;;;;;;;13.73;3.22;;;;;;;;;;5126261;27;20139;-78
2022/07/09 08:53:40;;;;;;;9.38;2.88;;;;;;;;;;5148173;27;20039;-79
2022/07/09 08:56:06;;;;;;;11.13;3.03;;;;;;;;;;5142942;27;20046;-75
2022/07/09 08:58:32;;;;;;;10.73;3.15;;;;;;;;;;5143229;27;20478;-76
2022/07/09 09:00:58;;;;;;;14.80;3.45;;;;;;;;;;5128519;27;20054;-80
2022/07/09 09:03:24;;;;;;;;;;;;;;;;;;5148901;27;20362;-82
2022/07/09 09:06:06;;;;;;;14.07;3.30;;;;;;;;;;5148510;27;20006;-74
2022/07/09 09:08:53;;;;;;;11.35;3.17;;;;;;;;;;5139529;27;20042;-75
2022/07/09 09:11:26;;;;;;;12.73;3.25;;;;;;;;;;5113208;27;20043;-77
2022/07/09 09:13:53;;;;;;;15.85;3.55;;;;;;;;;;5113318;27;20050;-77
2022/07/09 09:16:21;;;;;;;13.30;3.38;;;;;;;;;;5135507;27;20054;-81
2022/07/09 09:18:48;;;;;;;11.73;3.05;;;;;;;;;;5126318;27;20039;-80
2022/07/09 09:21:15;;;;;;;11.82;3.33;;;;;;;;;;5134938;27;20217;-75
2022/07/09 09:23:42;;;;;;;14.00;3.92;;;;;;;;;;5144815;27;20610;-77
2022/07/09 09:26:09;;;;;;;15.10;3.40;;;;;;;;;;5137757;27;20086;-77
2022/07/09 09:28:35;;;;;;;12.77;3.40;;;;;;;;;;5129765;27;20039;-77
2022/07/09 09:31:01;;;;;;;12.20;3.10;;;;;;;;;;5138633;27;20043;-77
2022/07/09 09:33:28;;;;;;;18.80;3.30;;;;;;;;;;5124917;27;20122;-76
2022/07/09 09:35:54;;;;;;;10.65;3.58;;;;;;;;;;5136534;27;20066;-77
2022/07/09 09:38:29;;;;;;;10.75;2.95;;;;;;;;;;5144316;27;20050;-78
2022/07/09 09:40:55;;;;;;;15.20;3.65;;;;;;;;;;5107143;27;20050;-81
2022/07/09 09:43:21;;;;;;;;;;;;;;;;;;5141936;27;20125;-82
2022/07/09 09:45:48;;;;;;;15.23;3.50;;;;;;;;;;5136574;27;19949;-84
2022/07/09 09:48:15;;;;;;;12.20;3.25;;;;;;;;;;5133118;27;20358;-78
2022/07/09 09:50:41;;;;;;;13.23;3.22;;;;;;;;;;5143532;27;20130;-80
2022/07/09 09:53:07;;;;;;;;;;;;;;;;;;5140941;27;20470;-74
2022/07/09 09:55:34;;;;;;;12.43;3.45;;;;;;;;;;5135091;27;19972;-86
2022/07/09 09:58:00;;;;;;;12.40;3.00;;;;;;;;;;5120025;27;20085;-78
2022/07/09 10:00:27;;;;;;;;;;;;;;;;;;5136064;27;20046;-70
2022/07/09 10:02:53;;;;;;;13.13;3.30;;;;;;;;;;5133491;27;19922;-71
2022/07/09 10:05:19;;;;;;;13.07;3.35;;;;;;;;;;5139199;27;20293;-68
2022/07/09 10:07:45;;;;;;;13.45;3.38;;;;;;;;;;5140375;27;20050;-68
2022/07/09 10:10:19;;;;;;;14.43;3.00;;;;;;;;;;5119491;27;20365;-83
2022/07/09 10:12:45;;;;;;;11.90;3.75;;;;;;;;;;5140405;27;20142;-80
2022/07/09 10:15:26;;;;;;;12.68;3.72;;;;;;;;;;5133445;27;20042;-78
2022/07/09 10:17:53;;;;;;;13.15;2.95;;;;;;;;;;5137992;27;20077;-72
2022/07/09 10:20:31;;;;;;;15.35;3.08;;;;;;;;;;5136126;27;20458;-68
2022/07/09 10:22:57;;;;;;;9.57;3.17;;;;;;;;;;5123635;27;20058;-71
2022/07/09 10:25:23;;;;;;;;;;;;;;;;;;5144946;27;20049;-67
2022/07/09 10:27:50;;;;;;;14.60;3.30;;;;;;;;;;5144067;27;19919;-66
2022/07/09 10:30:16;;;;;;;;;;;;;;;;;;5145527;27;20122;-74
2022/07/09 10:32:42;;;;;;;12.48;3.17;;;;;;;;;;5121718;27;20022;-69
2022/07/09 10:35:08;;;;;;;15.85;3.47;;;;;;;;;;5140838;27;20043;-71
2022/07/09 10:37:44;;;;;;;14.70;3.40;;;;;;;;;;5141659;27;20230;-73
2022/07/09 10:40:14;;;;;;;15.68;3.67;;;;;;;;;;5131944;27;20047;-72
2022/07/09 10:42:41;;;;;;;17.85;3.50;;;;;;;;;;5125047;27;20034;-68
2022/07/09 10:45:36;;;;;;;13.90;3.22;;;;;;;;;;5135721;27;20046;-73
2022/07/09 10:48:04;;;;;;;16.23;4.03;;;;;;;;;;5115585;27;20055;-72
2022/07/09 10:50:30;;;;;;;17.85;3.67;;;;;;;;;;5141622;27;20050;-65
2022/07/09 10:52:57;;;;;;;16.95;2.88;;;;;;;;;;5139014;27;20039;-73
2022/07/09 10:55:24;;;;;;;13.63;3.17;;;;;;;;;;5137477;27;20323;-75
2022/07/09 10:57:51;;;;;;;13.88;3.17;;;;;;;;;;5125405;27;21310;-74
2022/07/09 11:00:18;;;;;;;14.70;2.67;;;;;;;;;;5141379;27;20047;-77
2022/07/09 11:02:57;;;;;;;12.23;2.80;;;;;;;;;;5146493;27;20062;-75
2022/07/09 11:05:27;;;;;;;12.90;2.97;;;;;;;;;;5126779;27;20053;-71
2022/07/09 11:07:56;;;;;;;13.75;3.00;;;;;;;;;;5145572;27;20081;-68
2022/07/09 11:10:22;;;;;;;10.80;2.53;;;;;;;;;;5144466;27;20066;-73
2022/07/09 11:12:48;;;;;;;;;;;;;;;;;;5147008;27;20122;-83
2022/07/09 11:15:21;;;;;;;11.45;2.08;;;;;;;;;;5143202;27;20616;-70
2022/07/09 11:18:01;;;;;;;11.98;2.20;;;;;;;;;;5141868;27;20060;-73
2022/07/09 11:20:28;;;;;;;10.98;2.15;;;;;;;;;;5149760;27;20048;-82
2022/07/09 11:22:56;;;;;;;7.97;2.10;;;;;;;;;;5128543;27;20586;-79
2022/07/09 11:25:24;;;;;;;12.68;2.38;;;;;;;;;;5143827;27;20035;-83
2022/07/09 11:27:50;;;;;;;9.55;2.22;;;;;;;;;;5128321;27;20122;-75
2022/07/09 11:30:16;;;;;;;11.65;2.42;;;;;;;;;;5132838;27;20055;-68
2022/07/09 11:32:43;;;;;;;8.73;2.00;;;;;;;;;;5133448;27;20084;-66
2022/07/09 11:35:10;;;;;;;13.27;2.22;;;;;;;;;;5134062;27;20051;-68
2022/07/09 11:37:36;;;;;;;10.25;2.08;;;;;;;;;;5130536;27;20419;-73
2022/07/09 11:40:02;;;;;;;9.15;2.22;;;;;;;;;;5135398;27;20085;-74
2022/07/09 11:42:29;;;;;;;15.40;2.50;;;;;;;;;;5130215;27;20043;-66
2022/07/09 11:44:55;;;;;;;;;;;;;;;;;;5136694;27;20134;-71
2022/07/09 11:47:31;;;;;;;10.23;2.15;;;;;;;;;;5116182;27;20015;-76
2022/07/09 11:49:57;;;;;;;;;;;;;;;;;;5128839;27;20062;-79
2022/07/09 11:52:24;;;;;;;8.20;2.20;;;;;;;;;;5143719;27;19922;-80
2022/07/09 11:54:57;;;;;;;11.68;2.40;;;;;;;;;;5138870;27;20043;-70
2022/07/09 11:57:24;;;;;;;9.15;2.25;;;;;;;;;;5151171;27;20142;-72
2022/07/09 11:59:50;;;;;;;10.60;2.40;;;;;;;;;;5119563;27;20039;-73
2022/07/09 12:02:36;;;;;;;10.88;2.33;;;;;;;;;;5147072;27;20204;-73
2022/07/09 12:05:03;;;;;;;13.30;2.72;;;;;;;;;;5135632;27;20442;-65
2022/07/09 12:07:30;;;;;;;9.45;2.00;;;;;;;;;;5150840;27;20093;-70
2022/07/09 12:10:04;;;;;;;9.60;2.40;;;;;;;;;;5141429;27;20182;-78
2022/07/09 12:12:31;;;;;;;9.48;2.30;;;;;;;;;;5131043;27;20054;-79
2022/07/09 12:14:57;;;;;;;10.68;2.10;;;;;;;;;;5137053;27;20035;-70
2022/07/09 12:17:27;;;;;;;9.00;1.98;;;;;;;;;;5147602;27;20043;-67
2022/07/09 12:19:54;;;;;;;9.15;2.20;;;;;;;;;;5142155;27;20116;-70
2022/07/09 12:22:21;;;;;;;12.00;2.45;;;;;;;;;;5143662;27;20074;-77
2022/07/09 12:24:47;;;;;;;11.07;2.40;;;;;;;;;;5144150;27;20382;-77
2022/07/09 12:27:13;;;;;;;12.77;2.63;;;;;;;;;;5142627;27;20049;-81
2022/07/09 12:29:39;;;;;;;9.45;2.15;;;;;;;;;;5126314;27;20047;-82
2022/07/09 12:32:05;;;;;;;;;;;;;;;;;;5146516;27;20046;-80
2022/07/09 12:34:31;;;;;;;11.90;2.30;;;;;;;;;;5127188;27;19926;-77
2022/07/09 12:36:58;;;;;;;8.45;2.10;;;;;;;;;;5133877;27;20050;-81
2022/07/09 12:39:24;;;;;;;;;;;;;;;;;;5147760;27;20058;-79
2022/07/09 12:41:50;;;;;;;11.45;2.30;;;;;;;;;;5144932;27;19920;-78
2022/07/09 12:44:16;;;;;;;13.52;2.55;;;;;;;;;;5145661;27;20494;-75
2022/07/09 12:46:42;;;;;;;16.10;2.40;;;;;;;;;;5128847;27;20045;-76
2022/07/09 12:49:08;;;;;;;9.13;2.00;;;;;;;;;;5129674;27;20122;-78
2022/07/09 12:51:34;;;;;;;;;;;;;;;;;;5131485;27;20051;-81
2022/07/09 12:54:00;;;;;;;13.68;2.40;;;;;;;;;;5130328;27;19919;-82
2022/07/09 12:56:26;;;;;;;;;;;;;;;;;;5128819;27;20062;-71
2022/07/09 12:58:53;;;;;;;10.48;2.10;;;;;;;;;;5133593;27;19926;-74
2022/07/09 13:01:19;;;;;;;12.05;2.30;;;;;;;;;;5140374;27;20043;-76
2022/07/09 13:03:45;;;;;;;;;;;;;;;;;;5141302;27;20122;-72
2022/07/09 13:08:56;;;;;;;10.63;2.42;;;;;;;;;;5128494;27;20109;-76
2022/07/09 13:11:22;;;;;;;;;;;;;;;;;;5110127;27;20047;-74
2022/07/09 13:13:48;;;;;;;13.63;2.50;;;;;;;;;;5116817;27;19979;-68
2022/07/09 13:16:14;;;;;;;;;;;;;;;;;;5139090;27;20064;-70
2022/07/09 13:18:40;;;;;;;10.38;2.20;;;;;;;;;;5137689;27;20269;-72
2022/07/09 13:21:06;;;;;;;;;;;;;;;;;;5135636;27;20043;-71
2022/07/09 13:23:32;;;;;;;11.85;2.30;;;;;;;;;;5130589;27;20045;-67
2022/07/09 13:25:58;;;;;;;11.15;2.40;;;;;;;;;;5134917;27;20058;-78
2022/07/09 13:28:25;;;;;;;8.95;1.95;;;;;;;;;;5126818;27;20111;-64
2022/07/09 13:30:51;;;;;;;12.10;2.40;;;;;;;;;;5132555;27;20100;-65
2022/07/09 13:33:17;;;;;;;8.75;1.98;;;;;;;;;;5143086;27;20042;-80
2022/07/09 13:35:43;;;;;;;9.13;1.90;;;;;;;;;;5138899;27;20094;-68
2022/07/09 13:38:09;;;;;;;;;;;;;;;;;;5143130;27;20053;-70
2022/07/09 13:40:35;;;;;;;9.57;1.98;;;;;;;;;;5129911;27;19923;-65
2022/07/09 13:43:01;;;;;;;;;;;;;;;;;;5146891;27;20070;-65
2022/07/09 13:45:28;;;;;;;9.32;1.90;;;;;;;;;;5138460;27;19935;-67
2022/07/09 13:47:54;;;;;;;11.93;2.70;;;;;;;;;;5144649;27;20050;-65
2022/07/09 13:50:20;;;;;;;11.00;2.45;;;;;;;;;;5128788;27;20452;-67
2022/07/09 13:52:47;;;;;;;10.98;2.20;;;;;;;;;;5132113;27;20115;-69
2022/07/09 13:55:13;;;;;;;11.88;2.42;;;;;;;;;;5132963;27;20155;-69
2022/07/09 13:57:39;;;;;;;;;;;;;;;;;;5131904;27;20374;-65
2022/07/09 14:00:06;;;;;;;10.20;2.28;;;;;;;;;;5145848;27;19942;-66
2022/07/09 14:02:35;;;;;;;12.07;2.60;;;;;;;;;;5131969;27;20043;-65
2022/07/09 14:05:04;;;;;;;17.92;2.80;;;;;;;;;;5148448;27;20042;-65
2022/07/09 14:07:30;;;;;;;10.52;2.22;;;;;;;;;;5120595;27;20034;-68
2022/07/09 14:09:56;;;;;;;12.75;2.30;;;;;;;;;;5140597;27;20083;-66
2022/07/09 14:12:23;;;;;;;;;;;;;;;;;;5134210;27;20038;-65
2022/07/09 14:14:50;;;;;;;13.48;2.47;;;;;;;;;;5141831;27;19946;-73
2022/07/09 14:17:16;;;;;;;11.98;2.50;;;;;;;;;;5132110;27;20524;-64
2022/07/09 14:19:42;;;;;;;14.57;2.60;;;;;;;;;;5135861;27;20066;-63
2022/07/09 14:22:08;;;;;;;;;;;;;;;;;;5108847;27;20043;-66
2022/07/09 14:24:35;;;;;;;13.85;2.78;;;;;;;;;;5140098;27;19937;-68
2022/07/09 14:27:01;;;;;;;12.75;3.08;;;;;;;;;;5130444;27;20506;-66
2022/07/09 14:29:27;;;;;;;;;;;;;;;;;;5135078;27;20065;-67
2022/07/09 14:31:53;;;;;;;12.07;2.30;;;;;;;;;;5126992;27;19919;-67
2022/07/09 14:34:20;;;;;;;9.60;2.38;;;;;;;;;;5125570;27;20043;-68
2022/07/09 14:36:46;;;;;;;10.95;2.55;;;;;;;;;;5136842;27;20038;-65
2022/07/09 14:39:12;;;;;;;13.50;2.60;;;;;;;;;;5117820;27;20062;-66
2022/07/09 14:41:38;;;;;;;;;;;;;;;;;;5132438;27;20121;-66
2022/07/09 14:44:04;;;;;;;13.52;3.03;;;;;;;;;;5130537;27;19919;-68
2022/07/09 14:46:31;;;;;;;9.70;2.40;;;;;;;;;;5139483;27;20039;-72
2022/07/09 14:48:57;;;;;;;9.75;2.45;;;;;;;;;;5141980;27;20045;-69